Terminal Aerodrome Forecast
Issued by NWS

Home | Current Version | Previous Version | Text Only | Print | Product List | Glossary Off
Versions: 1 2 3 4 5 6 7 8 9 10 11 12 13 14 15 16 17 18 19 20 21 22 23 24 25 26 27 28 29 30 31 32 33 34 35 36 37 38

000
FTUS43 KDLH 281813 AAA
TAFHIB
TAF AMD
KHIB 281813Z 2818/2918 22007KT P6SM VCSH SCT018 BKN250
      TEMPO 2822/2902 5SM -TSRA OVC040CB
     FM290200 22006KT P6SM SCT040
      TEMPO 2911/2914 1SM BR SCT004
     FM291500 26006KT P6SM SKC=

USA.gov is the U.S. government's official web portal to all federal, state and local government web resources and services.